createdAt,value
2023-05-01T00:02:42.216Z,101294.63
2023-05-01T00:05:45.269Z,101289.06
2023-05-01T00:08:47.888Z,101282.66
2023-05-01T00:11:50.538Z,101287.06
2023-05-01T00:14:54.866Z,101288.09
2023-05-01T00:17:57.289Z,101286.69
2023-05-01T00:20:59.786Z,101286.25
2023-05-01T00:24:02.100Z,101265.50
2023-05-01T00:27:04.556Z,101271.06
2023-05-01T00:30:07.755Z,101268.53
2023-05-01T00:33:10.397Z,101289.88
2023-05-01T00:36:13.012Z,101278.88
2023-05-01T00:39:15.365Z,101272.84
2023-05-01T00:42:17.756Z,101276.44
2023-05-01T00:45:20.336Z,101273.50
2023-05-01T00:48:22.648Z,101269.09
2023-05-01T00:51:25.511Z,101260.72
2023-05-01T00:54:28.623Z,101269.81
2023-05-01T00:57:30.991Z,101269.66
2023-05-01T01:00:33.408Z,101263.06
2023-05-01T01:03:35.863Z,101261.91
2023-05-01T01:07:01.391Z,101263.38
2023-05-01T01:10:41.557Z,101266.00
2023-05-01T01:14:05.430Z,101264.53
2023-05-01T01:17:31.896Z,101269.53
2023-05-01T01:20:56.477Z,101269.75
2023-05-01T01:24:22.250Z,101260.56
2023-05-01T01:27:47.719Z,101260.69
2023-05-01T01:31:12.792Z,101264.56
2023-05-01T01:34:14.999Z,101266.25
2023-05-01T01:37:22.951Z,101256.00
2023-05-01T01:40:29.931Z,101253.22
2023-05-01T01:43:36.885Z,101256.16
2023-05-01T01:46:41.406Z,101258.84
2023-05-01T01:49:46.745Z,101247.66
2023-05-01T01:52:51.001Z,101243.28
2023-05-01T01:55:55.714Z,101242.06
2023-05-01T01:58:58.754Z,101238.34
2023-05-01T02:02:02.948Z,101242.06
2023-05-01T02:05:08.853Z,101236.22
2023-05-01T02:08:13.599Z,101231.53
2023-05-01T02:11:16.665Z,101233.25
2023-05-01T02:14:19.744Z,101236.34
2023-05-01T02:17:22.214Z,101224.31
2023-05-01T02:20:25.105Z,101221.13
2023-05-01T02:23:31.991Z,101231.50
2023-05-01T02:26:42.797Z,101223.63
2023-05-01T02:29:45.624Z,101218.56
2023-05-01T02:32:48.096Z,101222.91
2023-05-01T02:35:50.860Z,101207.56
2023-05-01T02:38:54.877Z,101206.91
2023-05-01T02:41:58.610Z,101207.06
2023-05-01T02:45:06.715Z,101221.94
2023-05-01T02:48:11.113Z,101222.69
2023-05-01T02:51:13.673Z,101216.22
2023-05-01T02:54:16.525Z,101220.19
2023-05-01T02:57:20.505Z,101209.25
2023-05-01T03:00:23.513Z,101218.66
2023-05-01T03:03:26.398Z,101205.69
2023-05-01T03:06:29.332Z,101219.19
2023-05-01T03:09:31.967Z,101213.38
2023-05-01T03:12:34.514Z,101209.03
2023-05-01T03:15:38.093Z,101211.72
2023-05-01T03:18:40.492Z,101212.81
2023-05-01T03:21:42.863Z,101197.44
2023-05-01T03:24:45.627Z,101198.16
2023-05-01T03:27:49.005Z,101203.59
2023-05-01T03:30:52.553Z,101212.34
2023-05-01T03:33:55.991Z,101207.34
2023-05-01T03:36:58.408Z,101208.91
2023-05-01T03:40:02.748Z,101214.19
2023-05-01T03:43:31.905Z,101210.97
2023-05-01T03:46:36.311Z,101197.44
2023-05-01T03:49:41.646Z,101211.00
2023-05-01T03:52:44.088Z,101215.22
2023-05-01T03:55:46.537Z,101203.38
2023-05-01T03:58:49.648Z,101206.41
2023-05-01T04:01:52.204Z,101208.06
2023-05-01T04:04:54.686Z,101198.69
2023-05-01T04:07:58.179Z,101202.22
2023-05-01T04:11:01.448Z,101196.63
2023-05-01T04:14:04.237Z,101205.69
2023-05-01T04:17:11.710Z,101205.84
2023-05-01T04:20:14.189Z,101207.69
2023-05-01T04:23:17.076Z,101210.66
2023-05-01T04:26:19.612Z,101210.44
2023-05-01T04:29:21.975Z,101207.56
2023-05-01T04:32:24.594Z,101215.06
2023-05-01T04:35:27.127Z,101214.63
2023-05-01T04:38:31.198Z,101212.03
2023-05-01T04:41:34.951Z,101212.81
2023-05-01T04:44:39.235Z,101205.53
2023-05-01T04:47:41.690Z,101206.31
2023-05-01T04:50:44.438Z,101199.44
2023-05-01T04:53:47.160Z,101206.19
2023-05-01T04:56:58.472Z,101209.28
2023-05-01T05:00:01.812Z,101194.47
2023-05-01T05:03:07.077Z,101207.06
2023-05-01T05:06:10.370Z,101192.69
2023-05-01T05:09:13.545Z,101205.31
2023-05-01T05:12:16.166Z,101205.31
2023-05-01T05:15:18.694Z,101202.47
2023-05-01T05:18:21.218Z,101206.06
2023-05-01T05:21:23.718Z,101204.84
2023-05-01T05:24:29.657Z,101207.72
2023-05-01T05:27:36.599Z,101208.75
2023-05-01T05:30:39.517Z,101209.31
2023-05-01T05:33:44.821Z,101211.69
2023-05-01T05:36:48.481Z,101200.09
2023-05-01T05:39:53.935Z,101200.31
2023-05-01T05:42:57.270Z,101214.63
2023-05-01T05:46:02.079Z,101193.78
2023-05-01T05:49:07.182Z,101206.91
2023-05-01T05:52:10.080Z,101208.81
2023-05-01T05:55:13.976Z,101206.13
2023-05-01T05:58:24.704Z,101211.19
2023-05-01T06:01:27.084Z,101223.91
2023-05-01T06:04:29.524Z,101225.16
2023-05-01T06:07:32.347Z,101221.09
2023-05-01T06:10:34.806Z,101227.88
2023-05-01T06:13:37.134Z,101231.44
2023-05-01T06:16:39.733Z,101234.84
2023-05-01T06:19:42.117Z,101227.66
2023-05-01T06:22:46.981Z,101218.75
2023-05-01T06:26:04.878Z,101221.13
2023-05-01T06:29:07.429Z,101222.44
2023-05-01T06:32:10.040Z,101225.38
2023-05-01T06:35:12.402Z,101217.75
2023-05-01T06:38:15.807Z,101205.56
2023-05-01T06:41:19.152Z,101217.38
2023-05-01T06:44:21.575Z,101207.53
2023-05-01T06:47:24.329Z,101204.81
2023-05-01T06:50:26.810Z,101202.41
2023-05-01T06:53:29.217Z,101196.97
2023-05-01T06:56:32.574Z,101198.91
2023-05-01T06:59:34.940Z,101195.81
2023-05-01T07:02:38.390Z,101196.16
2023-05-01T07:05:41.057Z,101206.34
2023-05-01T07:08:44.576Z,101205.88
2023-05-01T07:11:47.648Z,101200.56
2023-05-01T07:14:50.228Z,101199.84
2023-05-01T07:17:52.862Z,101196.88
2023-05-01T07:20:55.197Z,101206.06
2023-05-01T07:23:57.732Z,101185.84
2023-05-01T07:27:00.234Z,101192.75
2023-05-01T07:30:05.419Z,101185.81
2023-05-01T07:33:07.904Z,101186.13
2023-05-01T07:36:10.569Z,101198.06
2023-05-01T07:39:14.833Z,101186.13
2023-05-01T07:42:17.200Z,101184.53
2023-05-01T07:45:19.630Z,101186.00
2023-05-01T07:48:21.998Z,101177.44
2023-05-01T07:51:24.462Z,101171.28
2023-05-01T07:54:26.946Z,101172.53
2023-05-01T07:57:30.227Z,101173.00
2023-05-01T08:00:32.550Z,101177.44
2023-05-01T08:03:35.370Z,101171.38
2023-05-01T08:06:37.922Z,101172.25
2023-05-01T08:09:40.282Z,101163.94
2023-05-01T08:12:42.674Z,101164.06
2023-05-01T08:15:47.608Z,101161.13
2023-05-01T08:18:49.972Z,101161.97
2023-05-01T08:21:52.345Z,101168.59
2023-05-01T08:24:54.712Z,101152.44
2023-05-01T08:27:57.166Z,101150.63
2023-05-01T08:30:59.549Z,101142.81
2023-05-01T08:34:01.966Z,101160.31
2023-05-01T08:37:04.468Z,101155.97
2023-05-01T08:40:10.366Z,101159.00
2023-05-01T08:43:13.306Z,101162.00
2023-05-01T08:46:26.964Z,101136.81
2023-05-01T08:49:33.676Z,101159.84
2023-05-01T08:52:37.074Z,101150.84
2023-05-01T08:55:39.602Z,101152.28
2023-05-01T08:58:42.592Z,101148.63
2023-05-01T09:01:47.343Z,101140.78
2023-05-01T09:04:50.203Z,101132.56
2023-05-01T09:07:53.545Z,101144.59
2023-05-01T09:10:58.205Z,101140.22
2023-05-01T09:14:02.038Z,101122.44
2023-05-01T09:17:04.498Z,101123.78
2023-05-01T09:20:07.840Z,101122.19
2023-05-01T09:23:10.834Z,101125.19
2023-05-01T09:26:13.235Z,101124.63
2023-05-01T09:29:39.291Z,101118.91
2023-05-01T09:32:42.650Z,101110.41
2023-05-01T09:35:55.803Z,101105.66
2023-05-01T09:39:00.292Z,101100.28
2023-05-01T09:42:03.304Z,101094.72
2023-05-01T09:45:16.430Z,101090.91
2023-05-01T09:48:19.457Z,101093.28
2023-05-01T09:51:29.424Z,101086.50
2023-05-01T09:54:31.785Z,101086.72
2023-05-01T09:57:38.379Z,101064.91
2023-05-01T10:00:50.063Z,101071.78
2023-05-01T10:03:56.839Z,101077.19
2023-05-01T10:07:02.104Z,101072.66
2023-05-01T10:10:18.135Z,101066.16
2023-05-01T10:13:20.708Z,101066.63
2023-05-01T10:16:30.927Z,101065.22
2023-05-01T10:19:34.495Z,101058.81
2023-05-01T10:22:39.236Z,101054.44
2023-05-01T10:25:43.712Z,101052.06
2023-05-01T10:28:49.686Z,101053.31
2023-05-01T10:31:52.914Z,101046.03
2023-05-01T10:35:01.582Z,101036.06
2023-05-01T10:38:11.211Z,101041.81
2023-05-01T10:41:15.419Z,101030.34
2023-05-01T10:44:25.814Z,101016.59
2023-05-01T10:47:28.932Z,101029.59
2023-05-01T10:50:31.466Z,101023.97
2023-05-01T10:53:33.864Z,101025.38
2023-05-01T10:56:36.284Z,101019.91
2023-05-01T11:00:05.575Z,101021.50
2023-05-01T11:03:23.367Z,101017.66
2023-05-01T11:06:26.445Z,101014.03
2023-05-01T11:09:43.993Z,101013.72
2023-05-01T11:12:46.549Z,101019.03
2023-05-01T11:15:49.094Z,101006.59
2023-05-01T11:18:51.612Z,101003.94
2023-05-01T11:21:54.396Z,100997.22
2023-05-01T11:24:57.242Z,100989.41
2023-05-01T11:28:04.279Z,100988.72
2023-05-01T11:31:06.798Z,100989.25
2023-05-01T11:34:09.728Z,100972.78
2023-05-01T11:37:12.215Z,100976.22
2023-05-01T11:40:24.901Z,100976.31
2023-05-01T11:43:27.759Z,100974.50
2023-05-01T11:46:32.490Z,100973.81
2023-05-01T11:49:35.145Z,100963.78
2023-05-01T11:52:55.444Z,100961.09
2023-05-01T11:55:59.620Z,100956.16
2023-05-01T11:59:16.746Z,100960.50
2023-05-01T12:02:20.920Z,100954.78
2023-05-01T12:05:24.744Z,100948.50
2023-05-01T12:08:27.361Z,100928.34
2023-05-01T12:11:29.850Z,100937.97
2023-05-01T12:14:32.403Z,100927.00
2023-05-01T12:17:34.845Z,100916.56
2023-05-01T12:20:40.927Z,100917.19
2023-05-01T12:23:43.449Z,100914.41
2023-05-01T12:26:46.581Z,100914.91
2023-05-01T12:29:50.409Z,100911.06
2023-05-01T12:32:53.054Z,100902.22
2023-05-01T12:35:55.729Z,100899.38
2023-05-01T12:39:00.855Z,100892.88
2023-05-01T12:42:03.348Z,100891.97
2023-05-01T12:45:06.188Z,100883.25
2023-05-01T12:48:15.177Z,100864.78
2023-05-01T12:51:21.186Z,100874.91
2023-05-01T12:54:29.812Z,100878.72
2023-05-01T12:57:33.684Z,100877.03
2023-05-01T13:01:02.572Z,100868.31
2023-05-01T13:04:05.175Z,100865.53
2023-05-01T13:07:20.870Z,100861.69
2023-05-01T13:10:32.660Z,100853.44
2023-05-01T13:13:36.169Z,100852.81
2023-05-01T13:16:47.744Z,100852.81
2023-05-01T13:20:01.502Z,100847.94
2023-05-01T13:23:11.385Z,100843.72
2023-05-01T13:26:16.384Z,100832.38
2023-05-01T13:29:18.799Z,100828.97
2023-05-01T13:32:21.369Z,100813.69
2023-05-01T13:35:25.454Z,100822.13
2023-05-01T13:38:27.984Z,100817.13
2023-05-01T13:41:30.692Z,100811.91
2023-05-01T13:44:33.084Z,100821.28
2023-05-01T13:47:39.020Z,100809.44
2023-05-01T13:50:43.030Z,100789.16
2023-05-01T13:53:45.423Z,100800.81
2023-05-01T13:56:47.920Z,100793.91
2023-05-01T13:59:50.590Z,100785.09
2023-05-01T14:02:54.333Z,100772.28
2023-05-01T14:05:57.019Z,100786.06
2023-05-01T14:09:04.123Z,100784.31
2023-05-01T14:12:06.550Z,100781.25
2023-05-01T14:15:11.923Z,100778.31
2023-05-01T14:18:19.845Z,100774.59
2023-05-01T14:21:28.235Z,100778.78
2023-05-01T14:24:30.959Z,100754.59
2023-05-01T14:27:34.594Z,100747.44
2023-05-01T14:30:38.726Z,100761.25
2023-05-01T14:33:45.686Z,100753.78
2023-05-01T14:36:48.180Z,100749.38
2023-05-01T14:39:50.701Z,100733.94
2023-05-01T14:42:55.849Z,100730.69
2023-05-01T14:45:58.668Z,100733.78
2023-05-01T14:49:01.766Z,100737.69
2023-05-01T14:52:04.363Z,100739.44
2023-05-01T14:55:07.010Z,100728.44
2023-05-01T14:58:09.508Z,100726.00
2023-05-01T15:01:11.914Z,100719.50
2023-05-01T15:04:14.480Z,100714.28
2023-05-01T15:07:17.296Z,100709.28
2023-05-01T15:10:20.914Z,100717.38
2023-05-01T15:13:23.390Z,100714.00
2023-05-01T15:16:25.919Z,100707.50
2023-05-01T15:19:28.481Z,100705.50
2023-05-01T15:22:31.455Z,100711.22
2023-05-01T15:25:34.256Z,100701.19
2023-05-01T15:28:36.773Z,100700.69
2023-05-01T15:31:40.138Z,100690.31
2023-05-01T15:34:43.046Z,100679.28
2023-05-01T15:37:45.632Z,100681.88
2023-05-01T15:40:50.186Z,100679.41
2023-05-01T15:43:52.987Z,100674.41
2023-05-01T15:46:55.950Z,100661.44
2023-05-01T15:49:59.434Z,100665.34
2023-05-01T15:53:02.478Z,100662.56
2023-05-01T15:56:05.031Z,100659.50
2023-05-01T15:59:09.924Z,100662.41
2023-05-01T16:02:12.968Z,100657.84
2023-05-01T16:05:21.600Z,100651.69
2023-05-01T16:08:24.274Z,100659.28
2023-05-01T16:11:26.893Z,100653.31
2023-05-01T16:14:29.373Z,100655.25
2023-05-01T16:17:33.972Z,100648.44
2023-05-01T16:20:42.388Z,100652.78
2023-05-01T16:23:45.358Z,100657.34
2023-05-01T16:26:48.660Z,100649.41
2023-05-01T16:29:51.020Z,100646.78
2023-05-01T16:32:53.915Z,100645.13
2023-05-01T16:35:57.699Z,100646.59
2023-05-01T16:39:02.075Z,100637.06
2023-05-01T16:42:04.884Z,100625.13
2023-05-01T16:45:08.807Z,100630.50
2023-05-01T16:48:11.623Z,100631.84
2023-05-01T16:51:14.008Z,100627.50
2023-05-01T16:54:17.724Z,100627.97
2023-05-01T16:57:20.976Z,100626.28
2023-05-01T17:00:24.097Z,100629.56
2023-05-01T17:03:27.379Z,100620.78
2023-05-01T17:06:30.092Z,100623.72
2023-05-01T17:09:33.201Z,100617.56
2023-05-01T17:12:35.756Z,100624.13
2023-05-01T17:15:38.291Z,100618.31
2023-05-01T17:18:41.375Z,100615.03
2023-05-01T17:21:44.963Z,100621.25
2023-05-01T17:24:48.036Z,100616.34
2023-05-01T17:27:50.369Z,100604.81
2023-05-01T17:30:52.869Z,100606.19
2023-05-01T17:33:55.530Z,100606.06
2023-05-01T17:36:58.223Z,100609.16
2023-05-01T17:40:01.356Z,100600.09
2023-05-01T17:43:04.429Z,100596.78
2023-05-01T17:46:07.192Z,100589.38
2023-05-01T17:49:09.685Z,100593.16
2023-05-01T17:52:12.438Z,100585.31
2023-05-01T17:55:17.822Z,100582.97
2023-05-01T17:58:21.001Z,100580.44
2023-05-01T18:01:23.960Z,100587.09
2023-05-01T18:04:27.087Z,100584.03
2023-05-01T18:07:30.889Z,100583.19
2023-05-01T18:10:33.284Z,100587.03
2023-05-01T18:13:39.729Z,100591.78
2023-05-01T18:16:42.372Z,100587.88
2023-05-01T18:19:44.923Z,100595.72
2023-05-01T18:22:47.393Z,100590.88
2023-05-01T18:25:50.200Z,100597.78
2023-05-01T18:28:52.693Z,100590.44
2023-05-01T18:31:55.573Z,100590.34
2023-05-01T18:34:57.967Z,100587.53
2023-05-01T18:38:00.477Z,100571.78
2023-05-01T18:41:03.159Z,100572.50
2023-05-01T18:44:05.637Z,100575.78
2023-05-01T18:47:07.958Z,100577.53
2023-05-01T18:50:11.455Z,100574.53
2023-05-01T18:53:13.939Z,100577.59
2023-05-01T18:56:17.022Z,100577.16
2023-05-01T18:59:19.726Z,100588.06
2023-05-01T19:02:22.380Z,100544.06
2023-05-01T19:05:25.694Z,100591.69
2023-05-01T19:08:28.246Z,100585.22
2023-05-01T19:11:32.032Z,100571.88
2023-05-01T19:14:34.372Z,100580.06
2023-05-01T19:17:37.760Z,100578.97
2023-05-01T19:20:40.476Z,100577.56
2023-05-01T19:23:43.301Z,100578.69
2023-05-01T19:26:45.706Z,100577.66
2023-05-01T19:29:48.268Z,100579.84
2023-05-01T19:32:52.063Z,100567.59
2023-05-01T19:35:55.876Z,100568.41
2023-05-01T19:38:58.351Z,100571.44
2023-05-01T19:42:02.321Z,100563.81
2023-05-01T19:45:05.338Z,100564.31
2023-05-01T19:48:07.960Z,100554.00
2023-05-01T19:51:10.328Z,100543.63
2023-05-01T19:54:12.894Z,100538.72
2023-05-01T19:57:16.536Z,100545.81
2023-05-01T20:00:18.943Z,100545.31
2023-05-01T20:03:21.652Z,100544.44
2023-05-01T20:06:24.903Z,100539.28
2023-05-01T20:09:27.543Z,100531.91
2023-05-01T20:12:32.756Z,100536.03
2023-05-01T20:15:35.483Z,100528.94
2023-05-01T20:18:38.143Z,100526.22
2023-05-01T20:21:40.624Z,100522.41
2023-05-01T20:24:42.926Z,100528.13
2023-05-01T20:27:46.610Z,100504.41
2023-05-01T20:30:50.271Z,100513.94
2023-05-01T20:33:52.739Z,100519.66
2023-05-01T20:36:55.473Z,100515.34
2023-05-01T20:39:58.224Z,100507.69
2023-05-01T20:43:02.043Z,100507.69
2023-05-01T20:46:04.694Z,100503.84
2023-05-01T20:49:10.149Z,100504.94
2023-05-01T20:52:12.926Z,100499.50
2023-05-01T20:55:15.490Z,100497.59
2023-05-01T20:58:17.815Z,100497.06
2023-05-01T21:01:20.768Z,100502.47
2023-05-01T21:04:24.139Z,100495.69
2023-05-01T21:07:26.618Z,100495.69
2023-05-01T21:10:29.367Z,100498.72
2023-05-01T21:13:32.490Z,100500.88
2023-05-01T21:16:36.063Z,100497.06
2023-05-01T21:19:46.336Z,100496.25
2023-05-01T21:22:49.073Z,100491.63
2023-05-01T21:25:54.499Z,100496.81
2023-05-01T21:28:58.561Z,100492.16
2023-05-01T21:32:04.856Z,100494.06
2023-05-01T21:35:08.916Z,100492.16
2023-05-01T21:38:11.375Z,100490.25
2023-05-01T21:41:15.752Z,100485.06
2023-05-01T21:44:18.768Z,100479.91
2023-05-01T21:47:21.352Z,100495.16
2023-05-01T21:50:23.781Z,100490.50
2023-05-01T21:53:29.107Z,100484.25
2023-05-01T21:56:31.489Z,100486.16
2023-05-01T21:59:39.251Z,100490.78
2023-05-01T22:02:43.945Z,100481.25
2023-05-01T22:05:46.483Z,100480.16
2023-05-01T22:08:48.981Z,100483.97
2023-05-01T22:11:51.492Z,100473.91
2023-05-01T22:14:55.652Z,100469.00
2023-05-01T22:17:58.050Z,100473.31
2023-05-01T22:21:01.532Z,100471.69
2023-05-01T22:24:04.205Z,100473.63
2023-05-01T22:27:06.864Z,100471.16
2023-05-01T22:30:09.665Z,100473.06
2023-05-01T22:33:12.349Z,100464.88
2023-05-01T22:36:14.865Z,100464.91
2023-05-01T22:39:17.349Z,100456.97
2023-05-01T22:42:20.076Z,100459.72
2023-05-01T22:45:22.563Z,100439.56
2023-05-01T22:48:26.585Z,100448.31
2023-05-01T22:51:28.974Z,100444.72
2023-05-01T22:54:31.299Z,100445.84
2023-05-01T22:57:33.731Z,100452.41
2023-05-01T23:00:36.718Z,100449.69
2023-05-01T23:03:39.571Z,100441.19
2023-05-01T23:06:42.295Z,100438.78
2023-05-01T23:09:44.996Z,100437.44
2023-05-01T23:12:48.308Z,100421.63
2023-05-01T23:15:52.440Z,100433.03
2023-05-01T23:18:56.958Z,100421.88
2023-05-01T23:22:10.166Z,100412.59
2023-05-01T23:25:20.669Z,100417.81
2023-05-01T23:28:25.672Z,100412.06
2023-05-01T23:31:43.931Z,100418.34
2023-05-01T23:34:51.447Z,100405.53
2023-05-01T23:37:54.222Z,100397.66
2023-05-01T23:40:56.668Z,100398.22
2023-05-01T23:44:08.530Z,100399.00
2023-05-01T23:47:16.829Z,100392.75
2023-05-01T23:50:20.595Z,100386.50
2023-05-01T23:53:23.051Z,100383.22
2023-05-01T23:56:25.707Z,100379.13
2023-05-01T23:59:28.350Z,100380.75
